Time;durP1;ratioP1;P1;durP2;ratioP2;P2;SDS_P1;SDS_P2;PMS_P1;PMS_P2;Temp;Humidity;BMP_temperature;BMP_pressure;BME280_temperature;BME280_humidity;BME280_pressure;Samples;Min_cycle;Max_cycle;Signal;HPM_P1;HPM_P2
2023/08/13 00:00:46;;;;;;;14.30;4.20;;;;;;;-143.84;48.03;45026.22;5093320;28;20508;-51
2023/08/13 00:03:13;;;;;;;4.03;3.30;;;;;;;-143.84;48.00;45028.13;5093184;28;21013;-51
2023/08/13 00:05:40;;;;;;;3.10;2.70;;;;;;;-143.84;48.00;45035.75;5093492;28;20432;-51
2023/08/13 00:08:07;;;;;;;3.23;2.93;;;;;;;-143.84;47.80;45026.22;5093369;28;20439;-52
2023/08/13 00:10:35;;;;;;;7.70;4.00;;;;;;;-143.84;47.84;45026.22;5093336;28;20440;-51
2023/08/13 00:13:02;;;;;;;4.90;4.27;;;;;;;-143.84;47.53;45052.88;5093303;28;20445;-50
2023/08/13 00:15:30;;;;;;;3.60;3.30;;;;;;;-143.84;47.28;45024.31;5093222;28;20440;-52
2023/08/13 00:17:58;;;;;;;3.57;3.07;;;;;;;-143.84;47.09;45022.41;5093257;28;20440;-51
2023/08/13 00:20:25;;;;;;;5.23;3.07;;;;;;;-143.84;46.43;45052.88;5093343;28;20443;-51
2023/08/13 00:22:52;;;;;;;6.40;2.70;;;;;;;-143.84;45.97;45020.50;5093193;28;20465;-51
2023/08/13 00:25:21;;;;;;;3.60;3.30;;;;;;;-143.84;45.89;45039.53;5092836;28;20483;-50
2023/08/13 00:27:48;;;;;;;10.00;3.20;;;;;;;-143.84;45.78;45018.59;5092315;28;20451;-50
2023/08/13 00:30:15;;;;;;;3.77;3.50;;;;;;;-143.84;45.59;45020.50;5092321;28;20439;-51
2023/08/13 00:32:43;;;;;;;4.10;3.03;;;;;;;-143.84;45.17;45041.44;5092290;28;20800;-51
2023/08/13 00:35:11;;;;;;;5.97;3.30;;;;;;;-143.84;45.41;45052.88;5092706;28;20444;-51
2023/08/13 00:37:38;;;;;;;3.60;3.30;;;;;;;-143.84;45.59;45030.03;5093150;28;20439;-51
2023/08/13 00:40:07;;;;;;;3.77;3.47;;;;;;;-143.84;45.36;45052.88;5092673;28;20440;-51
2023/08/13 00:42:34;;;;;;;3.67;3.37;;;;;;;-143.84;45.23;45068.13;5092773;28;20451;-51
2023/08/13 00:45:01;;;;;;;3.63;3.33;;;;;;;-143.84;45.45;45030.03;5092785;28;20487;-51
2023/08/13 00:47:29;;;;;;;4.00;3.00;;;;;;;-143.84;45.56;45030.03;5092779;28;20436;-51
2023/08/13 00:49:58;;;;;;;8.97;3.37;;;;;;;-143.84;45.64;45050.97;5092933;28;21144;-50
2023/08/13 00:52:25;;;;;;;3.43;3.13;;;;;;;-143.84;45.89;45037.66;5092975;28;20968;-52
2023/08/13 00:54:53;;;;;;;4.27;3.87;;;;;;;-143.84;46.13;45030.03;5092386;28;20440;-51
2023/08/13 00:57:20;;;;;;;5.27;3.23;;;;;;;-143.84;46.14;45037.66;5091503;28;20493;-52
2023/08/13 00:59:48;;;;;;;4.00;3.70;;;;;;;-143.84;46.46;45043.34;5092456;28;20859;-51
2023/08/13 01:02:16;;;;;;;4.17;3.40;;;;;;;-143.84;46.19;45050.97;5092342;28;20451;-52
2023/08/13 01:04:43;;;;;;;4.57;3.13;;;;;;;-143.84;46.47;45050.97;5092190;28;20490;-52
2023/08/13 01:07:19;;;;;;;4.23;3.27;;;;;;;-143.84;46.60;45056.69;5092319;28;20444;-51
2023/08/13 01:09:54;;;;;;;3.03;2.73;;;;;;;-143.84;46.75;45043.34;5092536;28;20435;-51
2023/08/13 01:12:29;;;;;;;3.80;3.47;;;;;;;-143.84;46.49;45039.53;5092155;28;20436;-50
2023/08/13 01:15:03;;;;;;;3.97;3.63;;;;;;;-143.84;46.69;45026.22;5092292;28;21069;-50
2023/08/13 01:17:31;;;;;;;3.57;2.77;;;;;;;-143.84;46.89;45045.25;5092699;28;20471;-51
2023/08/13 01:20:00;;;;;;;6.50;4.10;;;;;;;-143.84;47.75;45033.84;5092118;28;20865;-51
2023/08/13 01:22:29;;;;;;;4.93;3.50;;;;;;;-143.84;47.26;45058.59;5092253;28;20443;-52
2023/08/13 01:24:56;;;;;;;4.60;3.53;;;;;;;-143.84;47.39;45026.22;5092362;28;21228;-51
2023/08/13 01:27:32;;;;;;;5.87;3.77;;;;;;;-143.84;47.60;45041.44;5092418;28;21333;-51
2023/08/13 01:30:05;;;;;;;6.60;3.27;;;;;;;-143.84;47.21;45030.03;5092014;28;20428;-51
2023/08/13 01:32:40;;;;;;;6.23;3.30;;;;;;;-143.84;47.70;45047.16;5092122;28;20460;-50
2023/08/13 01:35:10;;;;;;;4.37;3.77;;;;;;;-143.84;47.76;45050.97;5092000;28;20489;-51
2023/08/13 01:37:39;;;;;;;8.00;3.50;;;;;;;-143.84;48.25;45014.78;5091960;28;20930;-50
2023/08/13 01:40:07;;;;;;;7.17;4.07;;;;;;;-143.84;48.99;45054.78;5092080;28;20937;-50
2023/08/13 01:42:35;;;;;;;14.97;3.87;;;;;;;-143.84;49.56;45030.03;5091802;28;20926;-50
2023/08/13 01:45:02;;;;;;;13.20;4.17;;;;;;;-143.84;49.55;45035.75;5091483;28;20532;-50
2023/08/13 01:47:29;;;;;;;4.20;3.67;;;;;;;-143.84;49.62;45054.78;5091534;28;20462;-50
2023/08/13 01:49:56;;;;;;;10.70;3.73;;;;;;;-143.84;49.54;45052.88;5091485;28;20428;-51
2023/08/13 01:52:23;;;;;;;4.67;3.73;;;;;;;-143.84;50.09;45033.84;5091450;28;20441;-50
2023/08/13 01:54:52;;;;;;;11.13;4.00;;;;;;;-143.84;50.45;45056.69;5091578;28;21125;-51
2023/08/13 01:57:19;;;;;;;4.87;3.43;;;;;;;-143.84;50.73;45035.75;5091345;28;20447;-51
2023/08/13 01:59:46;;;;;;;9.33;3.90;;;;;;;-143.84;51.73;45031.94;5091381;28;20432;-50
2023/08/13 02:02:13;;;;;;;3.97;3.67;;;;;;;-143.84;52.08;45049.06;5091329;28;20481;-51
2023/08/13 02:04:40;;;;;;;4.47;3.33;;;;;;;-143.84;52.86;45043.34;5090831;28;20499;-51
2023/08/13 02:07:07;;;;;;;4.70;4.30;;;;;;;-143.84;53.09;45050.97;5091335;28;20433;-50
2023/08/13 02:09:34;;;;;;;4.40;4.00;;;;;;;-143.84;54.00;45030.03;5090926;28;20509;-51
2023/08/13 02:12:03;;;;;;;3.50;3.20;;;;;;;-143.84;53.67;45060.50;5091467;28;20440;-50
2023/08/13 02:14:30;;;;;;;6.80;3.83;;;;;;;-143.84;54.14;45047.16;5091097;28;20847;-50
2023/08/13 02:16:59;;;;;;;6.60;3.93;;;;;;;-143.84;54.24;45043.34;5091108;28;20452;-51
2023/08/13 02:19:26;;;;;;;4.47;4.17;;;;;;;-143.84;54.55;45052.88;5090988;28;20520;-51
2023/08/13 02:21:53;;;;;;;16.47;3.77;;;;;;;-143.84;55.23;45066.22;5091080;28;20443;-50
2023/08/13 02:24:20;;;;;;;7.47;4.13;;;;;;;-143.84;55.00;45033.84;5090916;28;20556;-51
2023/08/13 02:26:47;;;;;;;4.60;4.00;;;;;;;-143.84;55.61;45037.66;5090761;28;20492;-51
2023/08/13 02:29:16;;;;;;;6.70;3.93;;;;;;;-143.84;55.37;45062.41;5090495;28;20436;-50
2023/08/13 02:31:43;;;;;;;8.43;3.93;;;;;;;-143.84;55.06;45037.66;5090758;28;20436;-51
2023/08/13 02:34:10;;;;;;;4.27;3.87;;;;;;;-143.84;55.46;45054.78;5090795;28;20428;-50
2023/08/13 02:36:37;;;;;;;4.00;3.60;;;;;;;-143.84;54.97;45064.31;5090808;28;20500;-50
2023/08/13 02:39:04;;;;;;;6.77;4.10;;;;;;;-143.84;54.84;45050.97;5090743;28;20440;-51
2023/08/13 02:41:31;;;;;;;5.33;4.47;;;;;;;-143.84;54.94;45024.31;5090424;28;20514;-50
2023/08/13 02:43:58;;;;;;;4.07;3.67;;;;;;;-143.84;55.10;45045.25;5090568;28;20451;-51
2023/08/13 02:46:27;;;;;;;4.50;4.10;;;;;;;-143.84;55.30;45062.41;5090213;28;20443;-52
2023/08/13 02:48:55;;;;;;;7.33;4.03;;;;;;;-143.84;55.09;45064.31;5089352;28;21014;-53
2023/08/13 02:51:23;;;;;;;4.73;3.90;;;;;;;-143.84;54.95;45071.91;5088896;28;20440;-53
2023/08/13 02:53:50;;;;;;;4.63;4.27;;;;;;;-143.84;54.97;45045.25;5089520;28;20440;-53
2023/08/13 02:56:19;;;;;;;4.50;4.10;;;;;;;-143.84;55.11;45030.03;5089490;28;20529;-53
2023/08/13 02:58:46;;;;;;;6.17;4.23;;;;;;;-143.84;55.00;45043.34;5089466;28;20494;-53
2023/08/13 03:01:13;;;;;;;6.60;4.57;;;;;;;-143.84;55.05;45045.25;5089477;28;20472;-53
2023/08/13 03:03:42;;;;;;;8.00;4.70;;;;;;;-143.84;55.13;45047.16;5089011;28;20560;-53
2023/08/13 03:06:09;;;;;;;6.87;4.80;;;;;;;-143.84;55.14;45049.06;5089359;28;20553;-53
2023/08/13 03:08:36;;;;;;;4.97;4.20;;;;;;;-143.84;55.36;45064.31;5089320;28;20905;-53
2023/08/13 03:11:03;;;;;;;5.27;4.83;;;;;;;-143.84;55.46;45035.75;5089237;28;20432;-53
2023/08/13 03:13:30;;;;;;;4.80;4.40;;;;;;;-143.84;55.33;45047.16;5088994;28;20501;-53
2023/08/13 03:15:57;;;;;;;5.20;4.70;;;;;;;-143.84;55.56;45047.16;5089124;28;20998;-53
2023/08/13 03:18:25;;;;;;;5.87;4.80;;;;;;;-143.84;55.57;45068.13;5089166;28;20501;-53
2023/08/13 03:20:54;;;;;;;8.90;4.77;;;;;;;-143.84;55.37;45047.16;5088730;28;20436;-53
2023/08/13 03:23:21;;;;;;;7.10;4.70;;;;;;;-143.84;55.64;45030.03;5089093;28;20454;-53
2023/08/13 03:25:48;;;;;;;5.10;4.67;;;;;;;-143.84;55.31;45041.44;5088992;28;20552;-53
2023/08/13 03:28:15;;;;;;;7.77;5.37;;;;;;;-143.84;55.26;45033.84;5089579;28;20432;-56
2023/08/13 03:30:42;;;;;;;7.70;4.77;;;;;;;-143.84;55.43;45052.88;5089451;28;20489;-55
2023/08/13 03:33:09;;;;;;;6.80;5.50;;;;;;;-143.84;55.30;45058.59;5089136;28;20436;-55
2023/08/13 03:35:37;;;;;;;10.47;5.00;;;;;;;-143.84;55.38;45039.53;5089391;28;21089;-55
2023/08/13 03:38:06;;;;;;;7.70;4.20;;;;;;;-143.84;55.12;45018.59;5089301;28;20488;-55
2023/08/13 03:40:33;;;;;;;5.53;5.03;;;;;;;-143.84;55.15;45043.34;5089360;28;20456;-55
2023/08/13 03:43:00;;;;;;;5.30;4.90;;;;;;;-143.84;55.50;45049.06;5089159;28;20444;-56
2023/08/13 03:45:30;;;;;;;4.70;4.33;;;;;;;-143.84;54.60;45041.44;5089243;28;20525;-55
2023/08/13 03:47:57;;;;;;;4.63;4.23;;;;;;;-143.84;53.64;45049.06;5089101;28;20811;-55
2023/08/13 03:50:24;;;;;;;5.20;4.60;;;;;;;-143.84;51.83;45041.44;5089224;28;20440;-55
2023/08/13 03:52:51;;;;;;;4.77;4.33;;;;;;;-143.84;48.67;45041.44;5089227;28;20443;-56
2023/08/13 03:55:20;;;;;;;6.30;4.60;;;;;;;-143.84;47.62;45030.03;5089605;28;20436;-55
2023/08/13 03:57:47;;;;;;;5.70;4.47;;;;;;;-143.84;45.76;45030.03;5089582;28;21077;-56
2023/08/13 04:00:15;;;;;;;14.67;4.43;;;;;;;-143.84;43.92;45024.31;5089064;28;20443;-56
2023/08/13 04:02:48;;;;;;;5.13;4.50;;;;;;;-143.84;42.86;45005.28;5088764;28;20495;-55
2023/08/13 04:05:15;;;;;;;6.27;4.20;;;;;;;-143.84;41.39;44982.41;5089123;28;20984;-55
2023/08/13 04:07:42;;;;;;;5.90;4.10;;;;;;;-143.84;40.70;45007.19;5088975;28;20490;-55
2023/08/13 04:10:10;;;;;;;4.43;4.00;;;;;;;-143.84;40.02;44990.03;5088715;28;20508;-56
2023/08/13 04:12:38;;;;;;;6.83;4.50;;;;;;;-143.84;39.87;45007.19;5088626;28;20440;-55
2023/08/13 04:15:06;;;;;;;4.00;3.70;;;;;;;-143.84;39.52;44963.38;5088870;28;20858;-55
2023/08/13 04:17:34;;;;;;;5.07;4.10;;;;;;;-143.84;39.01;44980.53;5088661;28;20436;-56
2023/08/13 04:20:01;;;;;;;4.33;4.00;;;;;;;-143.84;38.46;45003.38;5088598;28;20933;-55
2023/08/13 04:22:28;;;;;;;7.17;3.93;;;;;;;-143.84;38.60;44997.66;5089146;28;20436;-55
2023/08/13 04:24:55;;;;;;;7.30;3.80;;;;;;;-143.84;38.27;44969.09;5088876;28;20875;-56
2023/08/13 04:27:22;;;;;;;5.93;3.67;;;;;;;-143.84;37.94;44986.22;5088927;28;20768;-56
2023/08/13 04:29:51;;;;;;;5.07;3.77;;;;;;;-143.84;37.20;44995.75;5088959;28;21017;-55
2023/08/13 04:32:18;;;;;;;6.27;4.37;;;;;;;-143.84;37.21;45010.97;5092314;28;20883;-55
2023/08/13 04:34:45;;;;;;;5.20;3.43;;;;;;;-143.84;37.35;44965.28;5092522;28;20500;-56
2023/08/13 04:37:12;;;;;;;5.83;3.97;;;;;;;-143.84;36.37;44965.28;5092457;28;20440;-55
2023/08/13 04:39:39;;;;;;;6.47;3.40;;;;;;;-143.84;36.22;44976.72;5092806;28;20926;-56
2023/08/13 04:42:07;;;;;;;11.43;3.43;;;;;;;-143.84;36.39;44972.91;5092211;28;20444;-56
2023/08/13 04:44:34;;;;;;;4.37;3.37;;;;;;;-143.84;35.72;44951.97;5092106;28;20447;-56
2023/08/13 04:47:02;;;;;;;3.50;3.20;;;;;;;-143.84;35.35;44957.66;5092362;28;20529;-56
2023/08/13 04:49:30;;;;;;;5.53;2.90;;;;;;;-143.84;35.22;44948.16;5092217;28;20482;-56
2023/08/13 04:51:57;;;;;;;3.90;3.20;;;;;;;-143.84;35.03;44980.53;5092170;28;20822;-56
2023/08/13 04:54:24;;;;;;;6.60;3.53;;;;;;;-143.84;34.55;44955.75;5092257;28;20435;-56
2023/08/13 04:56:51;;;;;;;3.67;3.30;;;;;;;-143.84;34.94;44972.91;5091910;28;20438;-56
2023/08/13 04:59:18;;;;;;;3.67;3.40;;;;;;;-143.84;34.02;44965.28;5091958;28;20448;-56
2023/08/13 05:01:45;;;;;;;3.70;3.40;;;;;;;-143.84;34.25;44980.53;5091804;28;20448;-56
2023/08/13 05:04:13;;;;;;;6.43;3.30;;;;;;;-143.84;34.31;44967.19;5091689;28;20819;-55
2023/08/13 05:06:41;;;;;;;5.17;3.73;;;;;;;-143.84;34.28;44955.75;5091617;28;20532;-56
2023/08/13 05:09:08;;;;;;;4.23;3.13;;;;;;;-143.84;34.37;44942.44;5091642;28;20436;-56
2023/08/13 05:11:35;;;;;;;3.50;3.20;;;;;;;-143.84;34.28;44948.16;5091896;28;20969;-56
2023/08/13 05:14:02;;;;;;;3.50;3.10;;;;;;;-143.84;34.30;44955.75;5090814;28;20436;-55
2023/08/13 05:16:29;;;;;;;3.33;3.13;;;;;;;-143.84;33.80;44927.19;5091493;28;20447;-56
2023/08/13 05:18:56;;;;;;;10.10;3.57;;;;;;;-143.84;33.67;44955.75;5091664;28;20879;-56
2023/08/13 05:21:24;;;;;;;17.37;3.90;;;;;;;-143.84;33.77;44913.88;5091429;28;20506;-56
2023/08/13 05:23:52;;;;;;;5.53;3.60;;;;;;;-143.84;33.35;44921.50;5091323;28;20440;-56
2023/08/13 05:26:19;;;;;;;3.40;3.10;;;;;;;-143.84;33.33;44940.53;5091265;28;20468;-56
2023/08/13 05:28:46;;;;;;;3.20;3.00;;;;;;;-143.84;33.20;44944.34;5091275;28;20440;-56
2023/08/13 05:31:13;;;;;;;3.33;3.13;;;;;;;-143.84;32.86;44953.88;5091230;28;20436;-56
2023/08/13 05:33:40;;;;;;;4.20;3.17;;;;;;;-143.84;32.82;44955.75;5091247;28;20440;-56
2023/08/13 05:36:07;;;;;;;14.93;3.93;;;;;;;-143.84;32.82;44931.00;5091173;28;21137;-56
2023/08/13 05:38:36;;;;;;;9.20;3.83;;;;;;;-143.84;32.64;44955.75;5090931;28;20440;-56
2023/08/13 05:41:03;;;;;;;3.97;3.57;;;;;;;-143.84;32.97;44934.81;5090832;28;20440;-55
2023/08/13 05:43:31;;;;;;;3.40;3.10;;;;;;;-143.84;32.57;44913.88;5090238;28;20505;-55
2023/08/13 05:45:58;;;;;;;8.07;3.33;;;;;;;-143.84;32.28;44911.97;5090741;28;20538;-56
2023/08/13 05:48:25;;;;;;;6.80;3.03;;;;;;;-143.84;31.86;44906.25;5090653;28;20473;-56
2023/08/13 05:50:52;;;;;;;5.60;3.33;;;;;;;-143.84;32.44;44911.97;5091000;28;20428;-56
2023/08/13 05:53:19;;;;;;;3.43;2.93;;;;;;;-143.84;31.89;44902.44;5090821;28;20437;-56
2023/08/13 05:55:48;;;;;;;5.87;2.87;;;;;;;-143.84;31.76;44913.88;5090618;28;20925;-56
2023/08/13 05:58:15;;;;;;;3.97;3.07;;;;;;;-143.84;32.04;44908.16;5090474;28;20477;-56
2023/08/13 06:00:42;;;;;;;8.60;2.90;;;;;;;-143.84;31.71;44911.97;5090736;28;20942;-56
2023/08/13 06:03:09;;;;;;;3.43;3.13;;;;;;;-143.84;31.56;44902.44;5090365;28;20491;-56
2023/08/13 06:05:38;;;;;;;3.43;3.00;;;;;;;-143.84;31.57;44885.31;5090578;28;20479;-56
2023/08/13 06:08:06;;;;;;;7.20;3.40;;;;;;;-143.84;31.21;44892.94;5090785;28;20884;-56
2023/08/13 06:10:33;;;;;;;6.07;3.43;;;;;;;-143.84;31.61;44873.88;5090239;28;20846;-56
2023/08/13 06:13:02;;;;;;;4.80;3.40;;;;;;;-143.84;31.15;44891.03;5090744;28;20440;-53
2023/08/13 06:15:29;;;;;;;4.40;3.63;;;;;;;-143.84;30.82;44889.13;5090257;28;20474;-53
2023/08/13 06:17:56;;;;;;;3.93;3.53;;;;;;;-143.84;30.64;44881.50;5090128;28;20438;-53
2023/08/13 06:20:24;;;;;;;4.20;2.97;;;;;;;-143.84;30.61;44881.50;5090510;28;20436;-51
2023/08/13 06:22:51;;;;;;;4.40;2.50;;;;;;;-143.84;30.27;44889.13;5090353;28;20444;-51
2023/08/13 06:25:18;;;;;;;7.77;3.13;;;;;;;-143.84;30.84;44862.47;5090082;28;20468;-51
2023/08/13 06:27:45;;;;;;;5.10;3.47;;;;;;;-143.84;29.42;44864.38;5090821;28;20436;-50
2023/08/13 06:30:14;;;;;;;9.70;3.40;;;;;;;-143.84;29.27;44870.09;5090250;28;20451;-52
2023/08/13 06:32:41;;;;;;;4.07;2.67;;;;;;;-143.84;28.71;44862.47;5090320;28;20436;-52
2023/08/13 06:35:08;;;;;;;10.40;2.83;;;;;;;-143.84;28.72;44835.81;5090144;28;20987;-51
2023/08/13 06:37:35;;;;;;;3.53;2.97;;;;;;;-143.84;28.76;44837.72;5090038;28;20440;-50
2023/08/13 06:40:03;;;;;;;3.00;2.80;;;;;;;-143.84;28.88;44873.88;5090389;28;21164;-50
2023/08/13 06:42:30;;;;;;;2.97;2.77;;;;;;;-143.84;29.03;44843.44;5090418;28;20439;-52
2023/08/13 06:44:57;;;;;;;2.83;2.40;;;;;;;-143.84;28.47;44854.84;5090121;28;20448;-50
2023/08/13 06:47:25;;;;;;;4.93;3.13;;;;;;;-143.84;29.42;44851.03;5089992;28;21061;-52
2023/08/13 06:49:52;;;;;;;6.70;2.87;;;;;;;-143.84;28.77;44843.44;5089984;28;20451;-50
2023/08/13 06:52:20;;;;;;;5.43;2.33;;;;;;;-143.84;29.30;44854.84;5090061;28;20436;-51
2023/08/13 06:54:47;;;;;;;2.77;2.57;;;;;;;-143.84;29.70;44849.13;5089008;28;20447;-52
2023/08/13 06:57:14;;;;;;;2.77;2.43;;;;;;;-143.84;28.23;44856.75;5089734;28;20444;-52
2023/08/13 06:59:41;;;;;;;6.43;3.27;;;;;;;-143.84;28.57;44841.53;5089826;28;20526;-52
2023/08/13 07:02:08;;;;;;;6.60;2.43;;;;;;;-143.84;28.87;44849.13;5089692;28;20497;-51
2023/08/13 07:04:37;;;;;;;4.10;2.57;;;;;;;-143.84;28.70;44860.56;5089655;28;20476;-51
2023/08/13 07:07:06;;;;;;;5.13;2.30;;;;;;;-143.84;29.27;44860.56;5089594;28;20483;-51
2023/08/13 07:09:33;;;;;;;7.73;2.67;;;;;;;-143.84;29.27;44866.28;5089691;28;20453;-51
2023/08/13 07:12:00;;;;;;;7.70;2.90;;;;;;;-143.84;29.27;44858.66;5089813;28;20436;-52
2023/08/13 07:14:28;;;;;;;6.10;3.30;;;;;;;-143.84;29.67;44870.09;5089514;28;20489;-52
2023/08/13 07:16:55;;;;;;;5.40;2.87;;;;;;;-143.84;29.50;44858.66;5089556;28;20443;-51
2023/08/13 07:19:22;;;;;;;5.00;2.87;;;;;;;-143.84;29.78;44877.69;5089828;28;20440;-51
2023/08/13 07:21:50;;;;;;;4.50;2.10;;;;;;;-143.84;29.53;44870.09;5090051;28;20493;-51
2023/08/13 07:24:17;;;;;;;15.37;2.87;;;;;;;-143.84;29.58;44830.09;5089706;28;20864;-51
2023/08/13 07:26:45;;;;;;;4.80;2.73;;;;;;;-143.84;29.56;44828.19;5089453;28;20483;-52
2023/08/13 07:29:12;;;;;;;5.60;2.63;;;;;;;-143.84;30.40;44826.28;5089290;28;20508;-52
2023/08/13 07:31:39;;;;;;;6.23;2.97;;;;;;;-143.84;30.08;44845.31;5089297;28;20444;-51
2023/08/13 07:34:06;;;;;;;5.50;3.33;;;;;;;-143.84;30.29;44837.72;5089423;28;20447;-50
2023/08/13 07:36:34;;;;;;;4.80;2.73;;;;;;;-143.84;29.96;44805.34;5088964;28;20440;-53
2023/08/13 07:39:03;;;;;;;3.10;2.60;;;;;;;-143.84;29.22;44818.66;5088876;28;20956;-51
2023/08/13 07:41:30;;;;;;;5.03;3.10;;;;;;;-143.84;29.21;44841.53;5088851;28;20475;-52
2023/08/13 07:43:57;;;;;;;3.87;2.67;;;;;;;-143.84;29.53;44797.72;5089281;28;20501;-51
2023/08/13 07:46:24;;;;;;;2.63;2.43;;;;;;;-143.84;29.47;44816.78;5089193;28;20471;-51
2023/08/13 07:48:51;;;;;;;6.33;2.37;;;;;;;-143.84;29.36;44835.81;5089428;28;20440;-52
2023/08/13 07:51:18;;;;;;;3.53;3.23;;;;;;;-143.84;29.68;44839.63;5089113;28;20810;-51
2023/08/13 07:53:45;;;;;;;6.10;2.77;;;;;;;-143.84;29.82;44852.94;5088964;28;21202;-51
2023/08/13 07:56:14;;;;;;;4.60;2.33;;;;;;;-143.84;29.30;44835.81;5089379;28;20440;-51
2023/08/13 07:58:41;;;;;;;7.00;2.83;;;;;;;-143.84;29.23;44845.31;5089343;28;20464;-50
2023/08/13 08:01:08;;;;;;;4.77;2.80;;;;;;;-143.84;29.55;44862.47;5089377;28;20501;-52
2023/08/13 08:03:35;;;;;;;9.73;2.70;;;;;;;-143.84;29.90;44820.56;5089169;28;20488;-50
2023/08/13 08:06:02;;;;;;;7.23;2.80;;;;;;;-143.84;29.93;44824.38;5091235;28;21278;-50
2023/08/13 08:08:29;;;;;;;6.13;2.50;;;;;;;-143.84;30.30;44860.56;5093308;28;21339;-50
2023/08/13 08:10:56;;;;;;;5.37;2.90;;;;;;;-143.84;29.87;44841.53;5093306;28;20428;-50
2023/08/13 08:13:25;;;;;;;5.77;2.60;;;;;;;-143.84;30.48;44832.00;5093076;28;20444;-50
2023/08/13 08:15:52;;;;;;;3.10;2.60;;;;;;;-143.84;29.70;44862.47;5093367;28;20443;-51
2023/08/13 08:18:19;;;;;;;2.90;2.10;;;;;;;-143.84;30.44;44854.84;5092783;28;20443;-51
2023/08/13 08:20:46;;;;;;;14.13;2.80;;;;;;;-143.84;29.76;44856.75;5093009;28;20444;-50
2023/08/13 08:23:14;;;;;;;4.10;2.60;;;;;;;-143.84;29.75;44852.94;5092995;28;20440;-51
2023/08/13 08:25:41;;;;;;;3.73;2.30;;;;;;;-143.84;29.63;44835.81;5092948;28;20872;-51
2023/08/13 08:28:08;;;;;;;5.00;2.70;;;;;;;-143.84;30.37;44875.78;5092515;28;20435;-51
2023/08/13 08:30:36;;;;;;;3.20;2.60;;;;;;;-143.84;29.47;44835.81;5092942;28;20918;-50
2023/08/13 08:33:04;;;;;;;6.30;2.37;;;;;;;-143.84;29.12;44862.47;5092704;28;20489;-50
2023/08/13 08:35:31;;;;;;;5.20;2.50;;;;;;;-143.84;29.38;44832.00;5092560;28;20443;-51
2023/08/13 08:37:58;;;;;;;3.40;2.70;;;;;;;-143.84;30.65;44839.63;5092698;28;20531;-50
2023/08/13 08:40:26;;;;;;;4.57;2.73;;;;;;;-143.84;33.60;44816.78;5092595;28;20444;-51
2023/08/13 08:42:53;;;;;;;7.70;3.03;;;;;;;-143.84;34.25;44851.03;5092213;28;20501;-51
2023/08/13 08:45:22;;;;;;;13.57;2.97;;;;;;;-143.84;33.12;44828.19;5092296;28;20440;-50
2023/08/13 08:47:52;;;;;;;7.53;2.90;;;;;;;-143.84;34.37;44824.38;5092230;28;20937;-51
2023/08/13 08:50:20;;;;;;;3.23;2.60;;;;;;;-143.84;34.43;44864.38;5091382;28;20558;-52
2023/08/13 08:52:49;;;;;;;3.13;2.77;;;;;;;-143.84;34.54;44875.78;5091399;28;20459;-50
2023/08/13 08:55:18;;;;;;;3.50;2.37;;;;;;;-143.84;34.36;44843.44;5091786;28;20519;-51
2023/08/13 08:57:45;;;;;;;7.73;2.90;;;;;;;-143.84;35.15;44854.84;5092293;28;20477;-50
2023/08/13 09:00:13;;;;;;;12.30;3.13;;;;;;;-143.84;35.02;44851.03;5092111;28;20466;-50
2023/08/13 09:02:43;;;;;;;6.80;3.13;;;;;;;-143.84;35.01;44877.69;5091837;28;20521;-51
2023/08/13 09:05:12;;;;;;;4.40;3.10;;;;;;;-143.84;34.82;44873.88;5091393;28;20770;-52
2023/08/13 09:07:42;;;;;;;4.73;3.33;;;;;;;-143.84;34.70;44852.94;5092061;28;20486;-50
2023/08/13 09:10:10;;;;;;;16.17;3.53;;;;;;;-143.84;35.39;44875.78;5092007;28;20443;-50
2023/08/13 09:12:39;;;;;;;5.30;3.00;;;;;;;-143.84;35.42;44858.66;5091799;28;20447;-51
2023/08/13 09:15:07;;;;;;;10.93;3.60;;;;;;;-143.84;33.78;44862.47;5091776;28;20505;-50
2023/08/13 09:17:34;;;;;;;5.57;3.07;;;;;;;-143.84;33.93;44811.06;5090844;28;20444;-50
2023/08/13 09:20:09;;;;;;;11.23;3.10;;;;;;;-143.84;32.75;44851.03;5091815;28;20451;-50
2023/08/13 09:22:37;;;;;;;4.13;2.10;;;;;;;-143.84;32.63;44858.66;5092073;28;20453;-51
2023/08/13 09:25:05;;;;;;;3.43;2.63;;;;;;;-143.84;32.28;44866.28;5091853;28;20440;-50
2023/08/13 09:27:32;;;;;;;4.63;3.40;;;;;;;-143.84;33.63;44835.81;5092011;28;20487;-52
2023/08/13 09:29:59;;;;;;;7.40;2.50;;;;;;;-143.84;32.55;44873.88;5091769;28;20446;-50
2023/08/13 09:32:28;;;;;;;10.37;3.20;;;;;;;-143.84;33.67;44860.56;5091594;28;20436;-50
2023/08/13 09:34:55;;;;;;;5.80;3.10;;;;;;;-143.84;31.96;44856.75;5091504;28;20440;-50
2023/08/13 09:37:25;;;;;;;3.00;2.10;;;;;;;-143.84;32.13;44801.53;5091641;28;21019;-50
2023/08/13 09:39:53;;;;;;;5.87;2.47;;;;;;;-143.84;32.90;44864.38;5091413;28;20443;-50
2023/08/13 09:42:24;;;;;;;7.20;2.90;;;;;;;-143.84;33.50;44862.47;5091423;28;20523;-51
2023/08/13 09:44:55;;;;;;;8.97;2.87;;;;;;;-143.84;32.82;44862.47;5091359;28;20440;-50
2023/08/13 09:47:27;;;;;;;3.27;2.97;;;;;;;-143.84;32.53;44870.09;5091346;28;20488;-50
2023/08/13 09:49:57;;;;;;;9.13;3.30;;;;;;;-143.84;32.77;44871.97;5091306;28;20443;-51
2023/08/13 09:52:28;;;;;;;7.07;2.87;;;;;;;-143.84;33.14;44885.31;5091212;28;20523;-50
2023/08/13 09:55:08;;;;;;;2.77;2.57;;;;;;;-143.84;33.62;44877.69;5091323;28;20942;-51
2023/08/13 09:57:37;;;;;;;8.23;3.30;;;;;;;-143.84;33.02;44854.84;5091011;28;20463;-50
2023/08/13 10:00:05;;;;;;;3.67;3.00;;;;;;;-143.84;32.14;44837.72;5090649;28;20444;-50
2023/08/13 10:02:33;;;;;;;6.07;3.10;;;;;;;-143.84;33.31;44879.59;5090326;28;20455;-50
2023/08/13 10:05:01;;;;;;;10.83;2.93;;;;;;;-143.84;33.14;44868.19;5090629;28;20436;-50
2023/08/13 10:07:29;;;;;;;2.63;2.40;;;;;;;-143.84;34.54;44835.81;5090908;28;20490;-51
2023/08/13 10:10:00;;;;;;;4.10;3.17;;;;;;;-143.84;35.20;44875.78;5091176;28;20428;-50
2023/08/13 10:12:28;;;;;;;5.67;2.90;;;;;;;-143.84;36.61;44845.31;5091305;28;20506;-51
2023/08/13 10:14:55;;;;;;;6.97;2.90;;;;;;;-143.84;36.72;44864.38;5090971;28;20432;-52
2023/08/13 10:17:26;;;;;;;5.20;3.17;;;;;;;-143.84;36.58;44885.31;5091007;28;20493;-50
2023/08/13 10:19:57;;;;;;;3.53;2.50;;;;;;;-143.84;35.48;44866.28;5090891;28;20987;-52
2023/08/13 10:22:26;;;;;;;4.90;2.70;;;;;;;-143.84;34.11;44873.88;5090792;28;20474;-51
2023/08/13 10:24:53;;;;;;;4.30;2.50;;;;;;;-143.84;35.56;44892.94;5090602;28;20471;-52
2023/08/13 10:27:23;;;;;;;2.70;2.50;;;;;;;-143.84;35.33;44883.41;5090523;28;20557;-52
2023/08/13 10:29:51;;;;;;;4.60;3.47;;;;;;;-143.84;35.88;44839.63;5090315;28;20991;-51
2023/08/13 10:32:19;;;;;;;7.83;3.20;;;;;;;-143.84;36.66;44854.84;5090166;28;20479;-52
2023/08/13 10:34:50;;;;;;;4.03;3.60;;;;;;;-143.84;36.33;44860.56;5090606;28;20447;-51
2023/08/13 10:37:19;;;;;;;4.40;2.87;;;;;;;-143.84;36.02;44847.22;5090542;28;21241;-51
2023/08/13 10:39:48;;;;;;;10.87;3.23;;;;;;;-143.84;36.70;44889.13;5090499;28;20439;-50
2023/08/13 10:42:48;;;;;;;10.07;2.97;;;;;;;-143.84;36.42;44881.50;5090653;28;20843;-51
2023/08/13 10:45:18;;;;;;;6.10;2.33;;;;;;;-143.84;35.97;44854.84;5087974;28;20958;-50
2023/08/13 10:47:46;;;;;;;3.13;2.83;;;;;;;-143.84;36.79;44889.13;5090362;28;20511;-50
2023/08/13 10:50:22;;;;;;;2.87;2.63;;;;;;;-143.84;37.01;44881.50;5090173;28;21055;-51
2023/08/13 10:52:52;;;;;;;5.87;3.30;;;;;;;-143.84;36.23;44889.13;5090154;28;20489;-51
2023/08/13 10:55:22;;;;;;;3.80;2.80;;;;;;;-143.84;37.15;44875.78;5090246;28;20511;-50
2023/08/13 10:57:51;;;;;;;7.90;3.20;;;;;;;-143.84;38.23;44891.03;5089970;28;20508;-51
2023/08/13 11:00:20;;;;;;;4.40;3.10;;;;;;;-143.84;37.95;44868.19;5089904;28;20528;-51
2023/08/13 11:02:51;;;;;;;3.87;2.40;;;;;;;-143.84;37.70;44873.88;5089894;28;20490;-51
2023/08/13 11:05:19;;;;;;;5.27;3.20;;;;;;;-143.84;38.00;44910.06;5090103;28;20470;-51
2023/08/13 11:07:46;;;;;;;4.50;2.70;;;;;;;-143.84;38.63;44896.75;5090172;28;20540;-50
2023/08/13 11:10:18;;;;;;;7.33;3.70;;;;;;;-143.84;38.41;44870.09;5089903;28;20447;-50
2023/08/13 11:12:46;;;;;;;10.63;3.30;;;;;;;-143.84;37.44;44891.03;5089914;28;20442;-51
2023/08/13 11:15:13;;;;;;;6.03;3.40;;;;;;;-143.84;37.44;44891.03;5089881;28;20489;-51
2023/08/13 11:17:46;;;;;;;4.70;2.97;;;;;;;-143.84;37.94;44892.94;5090059;28;20444;-52
2023/08/13 11:20:14;;;;;;;9.33;3.57;;;;;;;-143.84;37.29;44891.03;5089907;28;20505;-50